createdAt,value
2023-03-01T00:02:00.058Z,-3.2
2023-03-01T00:03:59.916Z,-3.2
2023-03-01T00:06:02.382Z,-3.2
2023-03-01T00:10:02.223Z,-3.3
2023-03-01T00:17:08.280Z,-3.4
2023-03-01T00:19:08.102Z,-3.3
2023-03-01T00:21:10.546Z,-3.3
2023-03-01T00:23:10.515Z,-3.3
2023-03-01T00:25:10.359Z,-3.3
2023-03-01T00:27:12.856Z,-3.3
2023-03-01T00:29:12.777Z,-3.4
2023-03-01T00:31:12.760Z,-3.4
2023-03-01T00:33:15.143Z,-3.5
2023-03-01T00:35:15.078Z,-3.5
2023-03-01T00:37:14.975Z,-3.5
2023-03-01T00:39:17.422Z,-3.5
2023-03-01T00:41:17.334Z,-3.5
2023-03-01T00:43:17.236Z,-3.5
2023-03-01T00:45:19.709Z,-3.5
2023-03-01T00:47:19.643Z,-3.6
2023-03-01T00:49:19.505Z,-3.6
2023-03-01T00:51:21.977Z,-3.6
2023-03-01T00:53:21.909Z,-3.6
2023-03-01T00:55:21.812Z,-3.5
2023-03-01T01:06:28.720Z,-3.6
2023-03-01T01:08:28.189Z,-3.6
2023-03-01T01:10:28.087Z,-3.6
2023-03-01T01:12:30.546Z,-3.6
2023-03-01T01:14:30.470Z,-3.7
2023-03-01T01:16:30.742Z,-3.7
2023-03-01T01:20:32.737Z,-3.8
2023-03-01T01:22:32.653Z,-3.9
2023-03-01T01:28:34.934Z,-3.8
2023-03-01T01:35:35.652Z,-3.8
2023-03-01T01:37:35.514Z,-3.9
2023-03-01T01:44:41.479Z,-3.9
2023-03-01T01:46:41.422Z,-3.9
2023-03-01T01:48:43.857Z,-3.9
2023-03-01T01:50:43.769Z,-4
2023-03-01T01:52:43.657Z,-4
2023-03-01T01:54:46.224Z,-4.1
2023-03-01T01:56:46.092Z,-4
2023-03-01T01:58:45.976Z,-4
2023-03-01T02:00:48.407Z,-3.9
2023-03-01T02:02:48.503Z,-4
2023-03-01T02:04:48.208Z,-4.1
2023-03-01T02:10:50.483Z,-4.2
2023-03-01T02:12:52.950Z,-4.1
2023-03-01T02:16:52.797Z,-4.2
2023-03-01T02:18:55.236Z,-4.2
2023-03-01T02:20:55.132Z,-4.1
2023-03-01T02:22:54.991Z,-4.3
2023-03-01T02:24:57.484Z,-4.3
2023-03-01T02:26:57.381Z,-4.3
2023-03-01T02:28:57.294Z,-4.3
2023-03-01T02:30:59.846Z,-4.2
2023-03-01T02:32:59.749Z,-4.3
2023-03-01T02:34:59.599Z,-4.3
2023-03-01T02:39:01.960Z,-4.4
2023-03-01T02:41:01.838Z,-4.3
2023-03-01T02:49:12.414Z,-4.5
2023-03-01T02:58:17.792Z,-4.4
2023-03-01T03:00:17.691Z,-4.5
2023-03-01T03:02:17.567Z,-4.5
2023-03-01T03:04:20.061Z,-4.6
2023-03-01T03:06:20.030Z,-4.6
2023-03-01T03:08:19.900Z,-4.6
2023-03-01T03:10:22.341Z,-4.6
2023-03-01T03:12:22.265Z,-4.5
2023-03-01T03:14:22.161Z,-4.5
2023-03-01T03:16:24.674Z,-4.5
2023-03-01T03:18:24.500Z,-4.5
2023-03-01T03:20:24.404Z,-4.5
2023-03-01T03:26:26.660Z,-4.6
2023-03-01T03:28:29.102Z,-4.6
2023-03-01T03:30:29.034Z,-4.6
2023-03-01T03:32:28.991Z,-4.6
2023-03-01T03:47:22.278Z,-4.7
2023-03-01T03:49:22.187Z,-4.9
2023-03-01T03:51:22.059Z,-4.8
2023-03-01T03:55:24.456Z,-4.8
2023-03-01T03:59:26.919Z,-4.8
2023-03-01T04:01:26.865Z,-4.8
2023-03-01T04:05:29.374Z,-4.8
2023-03-01T04:07:29.264Z,-4.8
2023-03-01T04:09:29.145Z,-4.9
2023-03-01T04:11:31.604Z,-4.9
2023-03-01T04:13:31.508Z,-4.9
2023-03-01T04:15:31.439Z,-4.9
2023-03-01T04:17:33.981Z,-4.9
2023-03-01T04:21:33.870Z,-5
2023-03-01T04:23:36.383Z,-5
2023-03-01T04:29:38.674Z,-4.8
2023-03-01T04:31:38.578Z,-4.8
2023-03-01T04:33:38.469Z,-4.8
2023-03-01T04:35:41.028Z,-4.9
2023-03-01T04:37:40.802Z,-4.9
2023-03-01T04:39:40.724Z,-4.9
2023-03-01T04:48:31.934Z,-5
2023-03-01T04:50:31.829Z,-4.9
2023-03-01T04:52:31.791Z,-5
2023-03-01T04:54:34.246Z,-5
2023-03-01T04:56:34.149Z,-5
2023-03-01T04:58:34.077Z,-5
2023-03-01T05:00:37.019Z,-5.1
2023-03-01T05:02:36.974Z,-5.1
2023-03-01T05:04:36.841Z,-5.2
2023-03-01T05:06:39.254Z,-5.3
2023-03-01T05:08:39.148Z,-5.3
2023-03-01T05:10:39.030Z,-5.4
2023-03-01T05:12:41.490Z,-5.3
2023-03-01T05:14:41.472Z,-5.3
2023-03-01T05:16:41.380Z,-5.3
2023-03-01T05:18:43.916Z,-5.4
2023-03-01T05:20:43.998Z,-5.3
2023-03-01T05:22:43.786Z,-5.3
2023-03-01T05:24:46.261Z,-5.3
2023-03-01T05:26:46.150Z,-5.3
2023-03-01T05:32:48.359Z,-5.3
2023-03-01T05:34:48.260Z,-5.3
2023-03-01T05:36:50.831Z,-5.3
2023-03-01T05:38:50.834Z,-5.3
2023-03-01T05:40:50.811Z,-5.3
2023-03-01T05:42:53.367Z,-5.3
2023-03-01T05:44:53.381Z,-5.4
2023-03-01T05:46:53.302Z,-5.3
2023-03-01T05:48:55.800Z,-5.3
2023-03-01T05:50:55.737Z,-5.3
2023-03-01T05:52:55.593Z,-5.3
2023-03-01T05:58:01.194Z,-5.3
2023-03-01T06:00:01.104Z,-5.3
2023-03-01T06:14:05.873Z,-5.3
2023-03-01T06:16:08.484Z,-5.3
2023-03-01T06:18:08.291Z,-5.3
2023-03-01T06:20:08.252Z,-5.3
2023-03-01T06:22:10.702Z,-5.3
2023-03-01T06:24:10.698Z,-5.3
2023-03-01T06:26:10.576Z,-5.3
2023-03-01T06:30:13.020Z,-5.3
2023-03-01T06:32:12.997Z,-5.3
2023-03-01T06:51:23.923Z,-4.9
2023-03-01T06:53:23.828Z,-4.9
2023-03-01T06:55:26.363Z,-4.8
2023-03-01T06:57:26.379Z,-4.8
2023-03-01T06:59:26.356Z,-4.7
2023-03-01T07:01:28.889Z,-4.7
2023-03-01T07:03:28.776Z,-4.7
2023-03-01T07:05:28.653Z,-4.6
2023-03-01T07:07:31.148Z,-4.6
2023-03-01T07:09:31.092Z,-4.5
2023-03-01T07:11:31.034Z,-4.5
2023-03-01T07:13:33.561Z,-4.4
2023-03-01T07:15:33.466Z,-4.3
2023-03-01T07:17:33.356Z,-4.2
2023-03-01T07:19:35.810Z,-4.2
2023-03-01T07:21:35.714Z,-4.1
2023-03-01T07:23:35.616Z,-3.8
2023-03-01T07:25:38.039Z,-3.5
2023-03-01T07:27:37.964Z,-3.5
2023-03-01T07:29:37.825Z,-3.4
2023-03-01T07:31:40.275Z,-3.4
2023-03-01T07:33:40.173Z,-3.4
2023-03-01T07:35:40.129Z,-3.3
2023-03-01T07:37:42.538Z,-3
2023-03-01T07:39:42.466Z,-2.8
2023-03-01T07:41:42.349Z,-2.7
2023-03-01T07:43:44.822Z,-2.7
2023-03-01T07:45:44.834Z,-2.7
2023-03-01T07:47:44.650Z,-2.4
2023-03-01T07:49:47.092Z,-2.2
2023-03-01T07:51:47.004Z,-1.9
2023-03-01T07:55:49.335Z,-1.5
2023-03-01T07:57:49.249Z,-1
2023-03-01T07:59:49.134Z,-0.5
2023-03-01T08:01:51.614Z,-0.1
2023-03-01T08:03:51.533Z,0.1
2023-03-01T08:11:00.161Z,0.6
2023-03-01T08:13:00.147Z,4.1
2023-03-01T08:14:59.999Z,4.6
2023-03-01T08:17:02.436Z,4.4
2023-03-01T08:19:02.545Z,5.1
2023-03-01T08:21:02.304Z,5.1
2023-03-01T08:23:24.427Z,6.5
2023-03-01T08:25:24.355Z,6.8
2023-03-01T08:29:27.710Z,4.8
2023-03-01T08:31:27.702Z,4.2
2023-03-01T08:33:27.683Z,4.6
2023-03-01T08:35:27.562Z,5.7
2023-03-01T08:37:27.468Z,6.3
2023-03-01T08:39:27.445Z,5.8
2023-03-01T08:41:27.298Z,4.3
2023-03-01T08:43:30.736Z,2.9
2023-03-01T08:45:30.732Z,3.1
2023-03-01T08:49:30.520Z,3.7
2023-03-01T08:51:30.435Z,3
2023-03-01T08:53:30.398Z,3.5
2023-03-01T08:55:30.281Z,4.4
2023-03-01T08:59:33.600Z,5.6
2023-03-01T09:01:33.486Z,6.3
2023-03-01T09:03:33.400Z,5.5
2023-03-01T09:05:33.278Z,4.6
2023-03-01T09:07:33.250Z,4.2
2023-03-01T09:09:33.102Z,5
2023-03-01T09:11:36.512Z,6.6
2023-03-01T09:13:36.420Z,6.6
2023-03-01T09:15:36.312Z,5.4
2023-03-01T09:20:37.826Z,5.9
2023-03-01T09:24:41.082Z,5.8
2023-03-01T09:26:40.974Z,5.7
2023-03-01T09:28:40.753Z,6.2
2023-03-01T09:30:40.686Z,6.2
2023-03-01T09:32:40.535Z,6.9
2023-03-01T09:34:40.415Z,7.3
2023-03-01T09:36:40.256Z,7.3
2023-03-01T09:38:43.616Z,8.4
2023-03-01T09:40:43.438Z,8.4
2023-03-01T09:42:43.229Z,7.4
2023-03-01T09:44:42.964Z,6.5
2023-03-01T09:46:42.788Z,5.9
2023-03-01T09:48:42.536Z,6.5
2023-03-01T09:50:42.441Z,7.5
2023-03-01T09:52:45.681Z,7.4
2023-03-01T09:54:45.425Z,7.7
2023-03-01T09:56:45.190Z,8.3
2023-03-01T09:58:44.921Z,8.6
2023-03-01T10:00:44.714Z,8.9
2023-03-01T10:02:44.465Z,9.7
2023-03-01T10:04:44.225Z,9.3
2023-03-01T10:06:47.344Z,9.3
2023-03-01T10:08:47.081Z,8.9
2023-03-01T10:10:46.839Z,8.6
2023-03-01T10:11:48.396Z,9.4
2023-03-01T10:15:47.861Z,11
2023-03-01T10:17:47.593Z,11.2
2023-03-01T10:25:49.820Z,10.2
2023-03-01T10:27:49.507Z,10.5
2023-03-01T10:29:49.188Z,10.3
2023-03-01T10:31:49.003Z,11
2023-03-01T10:33:51.940Z,10.8
2023-03-01T10:35:51.695Z,10.6
2023-03-01T10:37:51.293Z,11.2
2023-03-01T10:39:50.971Z,10.8
2023-03-01T10:41:50.591Z,11.3
2023-03-01T10:43:50.282Z,10.2
2023-03-01T10:45:49.949Z,10.2
2023-03-01T10:47:52.967Z,11.2
2023-03-01T10:49:52.621Z,10.5
2023-03-01T11:05:53.050Z,10.3
2023-03-01T11:06:54.549Z,10.1
2023-03-01T11:10:53.842Z,10.2
2023-03-01T11:12:53.485Z,10.3
2023-03-01T11:14:56.493Z,10.3
2023-03-01T11:16:56.144Z,10.7
2023-03-01T11:18:55.753Z,10.7
2023-03-01T11:20:55.391Z,11.2
2023-03-01T11:25:08.937Z,10.8
2023-03-01T11:28:58.194Z,11.1
2023-03-01T11:31:07.675Z,10.7
2023-03-01T11:32:57.547Z,10.6
2023-03-01T11:34:57.040Z,11.7
2023-03-01T11:36:56.683Z,10.7
2023-03-01T11:38:56.309Z,10.2
2023-03-01T11:40:56.256Z,10.1
2023-03-01T11:42:59.065Z,10.6
2023-03-01T11:44:58.569Z,10.6
2023-03-01T11:46:58.380Z,10.6
2023-03-01T11:48:57.866Z,10.6
2023-03-01T11:50:57.489Z,10.8
2023-03-01T11:52:57.088Z,11
2023-03-01T11:54:56.719Z,11.3
2023-03-01T11:56:59.713Z,9.7
2023-03-01T11:58:59.325Z,9.6
2023-03-01T12:00:58.937Z,9.5
2023-03-01T12:03:20.569Z,9.9
2023-03-01T12:05:20.261Z,10
2023-03-01T12:07:19.836Z,10.3
2023-03-01T12:09:22.878Z,9.4
2023-03-01T12:11:22.580Z,9.2
2023-03-01T12:13:22.135Z,8.9
2023-03-01T12:15:21.758Z,9.3
2023-03-01T12:23:23.663Z,10.1
2023-03-01T12:31:22.238Z,9.5
2023-03-01T12:33:21.851Z,9.9
2023-03-01T12:35:21.497Z,10.2
2023-03-01T12:37:24.542Z,9.9
2023-03-01T12:43:23.442Z,9.5
2023-03-01T12:45:23.088Z,10.4
2023-03-01T12:47:22.726Z,10.1
2023-03-01T12:49:22.374Z,9.8
2023-03-01T12:51:25.435Z,10.6
2023-03-01T12:53:25.097Z,10.7
2023-03-01T12:55:24.703Z,11
2023-03-01T12:56:26.220Z,11
2023-03-01T12:58:28.333Z,11.2
2023-03-01T13:00:25.552Z,10.7
2023-03-01T13:02:25.224Z,10.9
2023-03-01T13:04:28.245Z,10.7
2023-03-01T13:06:32.225Z,11.1
2023-03-01T13:08:27.521Z,11.2
2023-03-01T13:10:27.196Z,11.1
2023-03-01T13:12:26.845Z,10.5
2023-03-01T13:14:26.549Z,10.7
2023-03-01T13:16:26.221Z,10.3
2023-03-01T13:18:29.188Z,11.1
2023-03-01T13:20:28.826Z,11.1
2023-03-01T13:22:28.943Z,11.9
2023-03-01T13:24:28.114Z,11.4
2023-03-01T13:26:27.791Z,10.6
2023-03-01T13:28:27.444Z,10.4
2023-03-01T13:30:27.136Z,10.7
2023-03-01T13:34:30.582Z,12.3
2023-03-01T13:38:29.170Z,11.1
2023-03-01T13:40:28.873Z,11
2023-03-01T13:42:28.533Z,11.3
2023-03-01T13:44:28.211Z,12.4
2023-03-01T13:46:31.733Z,11.3
2023-03-01T13:48:30.946Z,11.2
2023-03-01T13:50:30.626Z,11.5
2023-03-01T13:51:32.130Z,11.8
2023-03-01T13:53:31.924Z,12
2023-03-01T13:59:35.808Z,13.2
2023-03-01T14:01:35.909Z,13.9
2023-03-01T14:03:35.127Z,14.2
2023-03-01T14:05:34.776Z,12.9
2023-03-01T14:07:34.439Z,12.7
2023-03-01T14:09:34.131Z,12.5
2023-03-01T14:11:33.823Z,13.7
2023-03-01T14:13:36.850Z,13.6
2023-03-01T14:15:36.583Z,12.7
2023-03-01T14:17:36.208Z,12.9
2023-03-01T14:19:35.918Z,13
2023-03-01T14:21:35.577Z,12.8
2023-03-01T14:23:35.247Z,13.6
2023-03-01T14:25:34.950Z,12.9
2023-03-01T14:27:38.028Z,12.5
2023-03-01T14:29:37.726Z,12.6
2023-03-01T14:31:46.945Z,13.1
2023-03-01T14:33:37.024Z,13.2
2023-03-01T14:35:36.801Z,13.6
2023-03-01T14:37:36.436Z,13.5
2023-03-01T14:39:36.113Z,12.9
2023-03-01T14:41:39.193Z,12.6
2023-03-01T14:43:38.895Z,12.5
2023-03-01T14:45:38.605Z,12.1
2023-03-01T14:46:40.188Z,12.1
2023-03-01T14:48:39.815Z,12.1
2023-03-01T14:50:39.486Z,12.1
2023-03-01T14:52:39.207Z,12.2
2023-03-01T14:54:42.268Z,13
2023-03-01T14:56:41.964Z,13
2023-03-01T14:58:41.671Z,13.4
2023-03-01T15:00:41.350Z,12.3
2023-03-01T15:06:40.440Z,12.4
2023-03-01T15:08:43.521Z,11.4
2023-03-01T15:10:43.235Z,11.9
2023-03-01T15:12:42.956Z,12.5
2023-03-01T15:14:47.341Z,12.4
2023-03-01T15:16:42.412Z,12.2
2023-03-01T15:18:42.076Z,12.1
2023-03-01T15:20:41.787Z,12.3
2023-03-01T15:22:44.895Z,11.5
2023-03-01T15:24:44.561Z,11.8
2023-03-01T15:26:44.325Z,13
2023-03-01T15:28:43.983Z,12.8
2023-03-01T15:30:43.706Z,13
2023-03-01T15:32:43.438Z,12.4
2023-03-01T15:34:43.148Z,11.7
2023-03-01T15:38:45.973Z,11.2
2023-03-01T15:40:45.704Z,11.3
2023-03-01T15:43:01.005Z,11
2023-03-01T15:45:00.727Z,11.3
2023-03-01T15:47:00.456Z,11.5
2023-03-01T15:49:03.556Z,11.7
2023-03-01T15:51:03.270Z,11.3
2023-03-01T15:53:03.015Z,10.2
2023-03-01T15:55:02.733Z,8.5
2023-03-01T15:57:02.445Z,7.5
2023-03-01T15:59:02.173Z,7.2
2023-03-01T16:01:02.628Z,7
2023-03-01T16:11:03.987Z,6.6
2023-03-01T16:13:03.761Z,6.6
2023-03-01T16:17:06.761Z,6.5
2023-03-01T16:19:06.624Z,6.4
2023-03-01T16:21:06.450Z,6.4
2023-03-01T16:23:06.234Z,6.3
2023-03-01T16:25:05.994Z,6.3
2023-03-01T16:27:05.853Z,6.2
2023-03-01T16:31:08.981Z,6.1
2023-03-01T16:35:08.595Z,6
2023-03-01T16:38:10.010Z,5.9
2023-03-01T16:40:09.841Z,5.9
2023-03-01T16:42:09.717Z,5.8
2023-03-01T16:44:13.003Z,5.7
2023-03-01T16:46:12.909Z,5.6
2023-03-01T16:48:12.750Z,5.6
2023-03-01T16:50:12.634Z,5.5
2023-03-01T16:52:12.507Z,5.4
2023-03-01T16:56:12.265Z,5.3
2023-03-01T16:58:15.563Z,5.2
2023-03-01T17:02:15.343Z,5.1
2023-03-01T17:04:15.198Z,5
2023-03-01T17:06:16.719Z,4.9
2023-03-01T17:08:14.975Z,4.9
2023-03-01T17:10:14.775Z,4.8
2023-03-01T17:12:18.185Z,4.6
2023-03-01T17:14:18.030Z,4.7
2023-03-01T17:16:17.988Z,4.6
2023-03-01T17:18:17.800Z,4.5
2023-03-01T17:20:17.626Z,4.5
2023-03-01T17:22:17.506Z,4.4
2023-03-01T17:24:17.404Z,4.3
2023-03-01T17:26:20.704Z,4.3
2023-03-01T17:28:20.596Z,4.3
2023-03-01T17:30:20.513Z,4.2
2023-03-01T17:33:22.083Z,4
2023-03-01T17:35:21.982Z,4
2023-03-01T17:37:21.883Z,3.9
2023-03-01T17:41:25.173Z,3.7
2023-03-01T17:43:25.080Z,3.6
2023-03-01T17:45:24.992Z,3.6
2023-03-01T17:47:24.864Z,3.7
2023-03-01T17:49:24.787Z,3.6
2023-03-01T17:53:28.060Z,3.5
2023-03-01T17:55:27.919Z,3.4
2023-03-01T17:57:27.760Z,3.4
2023-03-01T18:01:27.589Z,3.3
2023-03-01T18:03:27.424Z,3.1
2023-03-01T18:05:27.321Z,3
2023-03-01T18:09:30.793Z,2.9
2023-03-01T18:11:30.939Z,2.8
2023-03-01T18:13:30.445Z,2.7
2023-03-01T18:15:30.361Z,2.7
2023-03-01T18:17:30.293Z,2.6
2023-03-01T18:19:30.312Z,2.6
2023-03-01T18:21:33.971Z,2.6
2023-03-01T18:23:33.396Z,2.6
2023-03-01T18:25:33.362Z,2.7
2023-03-01T18:34:38.178Z,2.6
2023-03-01T18:36:38.362Z,2.7
2023-03-01T18:38:37.994Z,2.7
2023-03-01T18:40:37.881Z,2.6
2023-03-01T18:42:37.826Z,2.8
2023-03-01T18:44:37.751Z,2.9
2023-03-01T18:46:38.314Z,2.8
2023-03-01T18:48:41.088Z,2.6
2023-03-01T18:50:40.986Z,2.6
2023-03-01T18:52:40.919Z,2.5
2023-03-01T18:56:40.745Z,2.4
2023-03-01T18:58:40.672Z,2.5
2023-03-01T19:00:40.591Z,2.4
2023-03-01T19:02:44.074Z,2.4
2023-03-01T19:08:43.783Z,2.3
2023-03-01T19:10:43.689Z,2.2
2023-03-01T19:12:43.631Z,2
2023-03-01T19:14:43.551Z,1.9
2023-03-01T19:16:46.950Z,1.8
2023-03-01T19:18:46.885Z,1.6
2023-03-01T19:20:48.633Z,1.6
2023-03-01T19:23:02.667Z,1.7
2023-03-01T19:25:02.601Z,1.7
2023-03-01T19:27:02.536Z,1.9
2023-03-01T19:29:05.922Z,1.7
2023-03-01T19:31:05.925Z,1.6
2023-03-01T19:35:05.728Z,1.5
2023-03-01T19:37:05.651Z,1.5
2023-03-01T19:39:05.543Z,1.5
2023-03-01T19:41:05.510Z,1.5
2023-03-01T19:43:08.909Z,1.5
2023-03-01T19:53:09.002Z,1.3
2023-03-01T19:57:12.356Z,1.2
2023-03-01T19:59:12.301Z,1.1
2023-03-01T20:01:12.247Z,1.1
2023-03-01T20:03:12.271Z,1.1
2023-03-01T20:07:12.038Z,0.9
2023-03-01T20:09:21.070Z,0.8
2023-03-01T20:11:15.398Z,0.8
2023-03-01T20:13:15.357Z,0.9
2023-03-01T20:15:15.275Z,1
2023-03-01T20:16:17.118Z,1.1
2023-03-01T20:18:16.909Z,1.1
2023-03-01T20:20:16.830Z,1.2
2023-03-01T20:22:17.716Z,1.1
2023-03-01T20:24:20.184Z,1.2
2023-03-01T20:26:20.178Z,1.1
2023-03-01T20:36:19.837Z,0.5
2023-03-01T20:40:23.223Z,0.4
2023-03-01T20:44:23.076Z,0.5
2023-03-01T20:46:23.023Z,0.5
2023-03-01T20:48:22.937Z,0.6
2023-03-01T20:50:22.889Z,0.6
2023-03-01T20:52:26.310Z,0.4
2023-03-01T20:54:26.292Z,0.3
2023-03-01T20:56:26.211Z,0.3
2023-03-01T20:58:26.164Z,0.2
2023-03-01T21:00:26.161Z,0.1
2023-03-01T21:02:26.045Z,0.2
2023-03-01T21:04:25.960Z,0.1
2023-03-01T21:06:29.386Z,0
2023-03-01T21:08:29.336Z,-0.1
2023-03-01T21:10:29.325Z,0
2023-03-01T21:15:30.804Z,-0.1
2023-03-01T21:19:34.215Z,-0.2
2023-03-01T21:21:34.122Z,-0.3
2023-03-01T21:23:34.083Z,-0.3
2023-03-01T21:25:34.014Z,-0.4
2023-03-01T21:27:33.914Z,-0.4
2023-03-01T21:29:33.930Z,-0.4
2023-03-01T21:31:34.067Z,-0.4
2023-03-01T21:35:37.217Z,-0.5
2023-03-01T21:37:37.099Z,-0.4
2023-03-01T21:39:37.021Z,-0.4
2023-03-01T21:41:36.994Z,-0.4
2023-03-01T21:43:36.881Z,-0.5
2023-03-01T21:45:36.877Z,-0.6
2023-03-01T21:47:40.240Z,-0.6
2023-03-01T21:49:40.183Z,-0.5
2023-03-01T21:53:40.054Z,-0.6
2023-03-01T21:59:39.831Z,-0.6
2023-03-01T22:01:43.246Z,-0.6
2023-03-01T22:03:43.192Z,-0.6
2023-03-01T22:05:43.140Z,-0.6
2023-03-01T22:06:44.842Z,-0.6
2023-03-01T22:08:44.797Z,-0.6
2023-03-01T22:10:44.697Z,-0.6
2023-03-01T22:12:44.620Z,-0.5
2023-03-01T22:14:48.087Z,-0.4
2023-03-01T22:16:48.116Z,-0.4
2023-03-01T22:18:47.962Z,-0.4
2023-03-01T22:20:47.903Z,-0.4
2023-03-01T22:22:47.831Z,-0.4
2023-03-01T22:24:47.756Z,-0.4
2023-03-01T22:26:47.694Z,-0.3
2023-03-01T22:28:51.102Z,-0.4
2023-03-01T22:30:51.064Z,-0.4
2023-03-01T22:32:51.052Z,-0.4
2023-03-01T22:34:50.923Z,-0.5
2023-03-01T22:36:50.878Z,-0.5
2023-03-01T22:38:50.809Z,-0.5
2023-03-01T22:46:54.043Z,-0.5
2023-03-01T22:48:53.989Z,-0.4
2023-03-01T22:50:53.880Z,-0.4
2023-03-01T22:52:53.816Z,-0.5
2023-03-01T23:00:57.033Z,-0.3
2023-03-01T23:02:59.655Z,-0.3
2023-03-01T23:04:59.443Z,-0.2
2023-03-01T23:06:59.385Z,0
2023-03-01T23:09:01.851Z,0.1
2023-03-01T23:11:01.793Z,0.2
2023-03-01T23:13:01.721Z,0.3
2023-03-01T23:15:04.177Z,0.3
2023-03-01T23:17:04.212Z,0.4
2023-03-01T23:19:04.057Z,0.4
2023-03-01T23:21:06.528Z,0.4
2023-03-01T23:23:06.467Z,0.4
2023-03-01T23:25:06.390Z,0.5
2023-03-01T23:29:08.832Z,0.6
2023-03-01T23:31:08.762Z,0.6
2023-03-01T23:33:11.204Z,0.7
2023-03-01T23:35:11.183Z,0.7
2023-03-01T23:37:11.110Z,0.9
2023-03-01T23:39:13.570Z,1
2023-03-01T23:41:13.499Z,1
2023-03-01T23:43:13.417Z,1
2023-03-01T23:45:15.876Z,1
2023-03-01T23:47:15.850Z,1.1
